Latest Weather Observations for Sydney - Observatory Hill

IDN60801

Issued at 9:05 pm EST Monday 1 September 2014 (issued every 30 minutes, with the page automatically refreshed every 10 minutes)

About weather observations | Map of weather stations | Latest weather observations for NSW | Other Formats
Station Details ID: 066062 Name: SYDNEY (OBSERVATORY HILL) Lat: -33.86 Lon: 151.21 Height: 39.0 m
Data from the previous 72 hours. | See also: Recent months at Sydney - Observatory Hill

* Apparent temperature (App Temp) for Sydney - Observatory Hill is calculated using temperature observations collected at Sydney - Observatory Hill and wind observations collected at Fort Denison, as wind observations are not currently provided for Sydney - Observatory Hill.

Date/Time
EST
Temp
°C
App
Temp
°C
Dew
Point
Rel
Hum
%
Delta-T
°C
Wind Press
QNH
hPa
Press
MSL
hPa
Rain
since 9 am
mm
Dir
 
Spd
km/h
Gust
km/h
Spd
kts
Gust
kts
01/09:00pm 17.8 13.2 6.3 47 5.7 - 20 - 11 - 1011.5 1011.5 0.2
01/08:30pm 17.6 14.2 7.6 52 5.1 - 15 - 8 - 1011.8 - 0.2
01/08:00pm 17.6 14.7 8.2 54 4.8 - 13 - 7 - 1011.8 1011.8 0.2
01/07:30pm 18.0 16.1 9.1 56 4.6 - 9 - 5 - 1011.4 - 0.2
01/07:00pm 18.7 18.2 10.8 60 4.3 - 4 - 2 - 1011.2 1011.2 0.2
01/06:30pm 19.2 19.4 12.0 63 4.0 - 2 - 1 - 1011.0 - 0.2
01/06:00pm 19.7 17.3 10.1 54 5.2 - 13 - 7 - 1010.6 1010.6 0.2
01/05:30pm 19.8 16.4 9.1 50 5.6 - 17 - 9 - 1010.7 - 0.2
01/05:00pm 19.9 16.4 8.6 48 5.9 - 17 - 9 - 1010.8 1010.8 0.2
01/04:30pm 20.4 17.0 9.0 48 6.0 - 17 - 9 - 1010.7 - 0.2
01/04:00pm 20.2 17.9 10.3 53 5.4 - 13 - 7 - 1010.7 1010.7 0.2
01/03:30pm 20.6 17.3 9.5 49 5.9 - 17 - 9 - 1010.8 - 0.2
01/03:00pm 20.7 18.3 10.2 51 5.7 - 13 - 7 - 1010.9 1010.9 0.2
01/02:30pm 21.0 17.1 9.3 47 6.2 - 20 - 11 - 1011.2 - 0.2
01/02:00pm 21.3 18.1 9.9 48 6.2 - 17 - 9 - 1011.8 1011.8 0.2
01/01:30pm 21.6 18.0 8.5 43 6.9 - 17 - 9 - 1012.3 - 0.2
01/01:00pm 22.5 19.7 7.1 37 8.0 - 11 - 6 - 1012.8 1012.8 0.0
01/12:30pm 22.5 19.8 7.5 38 7.8 - 11 - 6 - 1013.3 - 0.0
01/12:00pm 21.5 19.0 9.7 47 6.4 - 13 - 7 - 1013.7 1013.7 0.0
01/11:30am 21.2 18.5 7.4 41 7.1 - 11 - 6 - 1014.2 - 0.0
01/11:00am 19.6 19.1 9.5 52 5.4 - 2 - 1 - 1014.8 1014.8 0.0
01/10:30am 18.1 17.5 10.5 61 4.1 - 4 - 2 - 1015.5 - 0.0
01/10:00am 16.6 15.1 10.7 68 3.1 - 9 - 5 - 1016.1 1016.1 0.0
01/09:30am 15.0 13.0 10.2 73 2.5 - 11 - 6 - 1016.6 - 0.0
01/09:00am 14.6 12.3 10.6 77 2.1 - 13 - 7 - 1016.9 1016.9 0.0
01/08:30am 13.2 9.9 10.9 86 1.2 - 19 - 10 - 1017.3 - 0.0
01/08:00am 12.3 10.2 11.2 93 0.6 - 13 - 7 - 1017.3 1017.3 0.0
01/07:30am 11.6 9.3 10.5 93 0.6 - 13 - 7 - 1017.0 - 0.0
01/07:00am 11.1 9.1 10.0 93 0.6 - 11 - 6 - 1016.8 1016.8 0.0
01/06:30am 10.8 8.3 9.6 92 0.6 - 13 - 7 - 1016.9 - 0.0
01/06:00am 11.0 8.1 9.8 92 0.6 - 15 - 8 - 1016.7 1016.7 0.0
01/05:30am 10.8 8.2 9.4 91 0.7 - 13 - 7 - 1016.6 - 0.0
01/05:00am 10.9 8.7 9.5 91 0.7 - 11 - 6 - 1016.4 1016.4 0.0
01/04:30am 11.3 9.2 9.9 91 0.7 - 11 - 6 - 1016.1 - 0.0
01/04:00am 11.7 10.7 10.3 91 0.7 - 6 - 3 - 1016.0 1016.0 0.0
01/03:30am 11.8 9.5 10.4 91 0.7 - 13 - 7 - 1016.0 - 0.0
01/03:00am 12.0 9.0 10.6 91 0.7 - 17 - 9 - 1016.2 1016.2 0.0
01/02:30am 12.4 10.6 11.0 91 0.7 - 11 - 6 - 1016.4 - 0.0
01/02:00am 12.4 11.5 10.8 90 0.8 - 6 - 3 - 1016.7 1016.7 0.0
01/01:30am 12.5 11.1 10.9 90 0.8 - 9 - 5 - 1017.0 - 0.0
01/01:00am 12.5 11.0 10.7 89 0.9 - 9 - 5 - 1017.2 1017.2 0.0
01/12:30am 12.7 12.2 10.8 88 1.0 - 4 - 2 - 1017.5 - 0.0
01/12:00am 13.1 11.4 11.3 89 1.0 - 11 - 6 - 1017.9 1017.9 0.0
 
Date/Time
EST
Temp
°C
App
Temp
°C
Dew
Point
Rel
Hum
%
Delta-T
°C
Wind Press
QNH
hPa
Press
MSL
hPa
Rain
since 9 am
mm
Dir
 
Spd
km/h
Gust
km/h
Spd
kts
Gust
kts
31/11:30pm 13.2 11.9 11.3 88 1.0 - 9 - 5 - 1018.0 - 0.0
31/11:00pm 13.4 12.2 11.5 88 1.0 - 9 - 5 - 1018.3 1018.3 0.0
31/10:30pm 13.8 11.0 11.5 86 1.2 - 17 - 9 - 1018.2 - 0.0
31/10:00pm 14.3 12.3 11.5 83 1.5 - 13 - 7 - 1018.3 1018.3 0.0
31/09:30pm 15.7 16.1 12.5 81 1.8 - 2 - 1 - 1018.0 - 0.0
31/09:00pm 16.0 16.5 12.7 81 1.8 - 2 - 1 - 1018.1 1018.1 0.0
31/08:30pm 16.0 16.4 12.6 80 1.9 - 2 - 1 - 1018.2 - 0.0
31/08:00pm 16.0 16.4 12.6 80 1.9 - 2 - 1 - 1018.1 1018.1 0.0
31/07:30pm 16.2 16.3 12.6 79 2.0 - 4 - 2 - 1018.0 - 0.0
31/07:00pm 16.2 15.9 12.6 79 2.0 - 6 - 3 - 1017.8 1017.8 0.0
31/06:30pm 16.4 15.4 12.4 77 2.2 - 9 - 5 - 1017.4 - 0.0
31/06:00pm 16.5 15.1 12.3 76 2.3 - 11 - 6 - 1017.3 1017.3 0.0
31/05:30pm 16.8 14.9 11.9 73 2.7 - 13 - 7 - 1017.3 - 0.0
31/05:00pm 17.3 15.0 11.6 69 3.1 - 15 - 8 - 1017.2 1017.2 0.0
31/04:30pm 17.8 15.3 11.1 65 3.6 - 15 - 8 - 1017.1 - 0.0
31/04:00pm 18.5 16.3 10.8 61 4.2 - 13 - 7 - 1017.1 1017.1 0.0
31/03:30pm 19.4 16.4 10.7 57 4.7 - 17 - 9 - 1017.0 - 0.0
31/03:00pm 20.5 18.0 11.2 55 5.1 - 15 - 8 - 1017.2 1017.2 0.0
31/02:30pm 19.4 16.9 10.9 58 4.6 - 15 - 8 - 1017.4 - 0.0
31/02:00pm 19.9 17.3 10.6 55 5.0 - 15 - 8 - 1017.7 1017.7 0.0
31/01:30pm 19.4 16.3 10.4 56 4.9 - 17 - 9 - 1018.0 - 0.0
31/01:00pm 20.1 17.7 10.2 53 5.3 - 13 - 7 - 1018.4 1018.4 0.0
31/12:30pm 19.5 18.4 10.0 54 5.1 - 6 - 3 - 1018.9 - 0.0
31/12:00pm 19.5 18.6 10.5 56 4.9 - 6 - 3 - 1019.3 1019.4 0.0
31/11:30am 19.1 18.0 10.1 56 4.8 - 6 - 3 - 1019.8 - 0.0
31/11:00am 19.3 18.0 11.1 59 4.5 - 9 - 5 - 1020.2 1020.2 0.0
31/10:30am 17.4 15.6 9.6 60 4.1 - 9 - 5 - 1020.6 - 0.0
31/10:00am 16.7 13.8 9.6 63 3.7 - 15 - 8 - 1020.8 1020.8 0.0
31/09:30am 15.5 12.1 9.2 66 3.2 - 17 - 9 - 1021.0 - 0.0
31/09:00am 14.8 10.7 8.7 67 3.1 - 20 - 11 - 1021.1 1021.1 3.0
31/08:30am 13.9 9.3 8.3 69 2.8 - 22 - 12 - 1021.5 - 3.0
31/08:00am 14.4 10.3 8.6 68 2.9 - 20 - 11 - 1021.3 1021.3 3.0
31/07:30am 13.3 9.2 8.8 74 2.3 - 20 - 11 - 1021.0 - 3.0
31/07:00am 12.3 7.9 8.8 79 1.7 - 22 - 12 - 1021.0 1021.0 3.0
31/06:30am 11.8 7.6 8.3 79 1.7 - 20 - 11 - 1020.9 - 3.0
31/06:00am 11.8 7.2 8.3 79 1.7 - 22 - 12 - 1020.7 1020.7 3.0
31/05:30am 11.9 6.9 8.2 78 1.8 - 24 - 13 - 1020.6 - 3.0
31/05:00am 12.1 7.9 8.4 78 1.8 - 20 - 11 - 1020.4 1020.4 3.0
31/04:30am 12.3 8.3 9.0 80 1.7 - 20 - 11 - 1020.4 - 3.0
31/04:00am 12.2 7.4 8.7 79 1.7 - 24 - 13 - 1020.4 1020.4 3.0
31/03:30am 12.1 7.7 8.8 80 1.6 - 22 - 12 - 1020.4 - 3.0
31/03:00am 12.1 8.3 8.9 81 1.6 - 19 - 10 - 1020.5 1020.5 3.0
31/02:30am 12.3 8.5 9.0 80 1.7 - 19 - 10 - 1020.7 - 3.0
31/02:00am 12.7 9.0 9.3 80 1.7 - 19 - 10 - 1020.7 1020.7 3.0
31/01:30am 13.0 9.1 9.6 80 1.7 - 20 - 11 - 1021.0 - 3.0
31/01:00am 13.2 10.0 9.8 80 1.7 - 17 - 9 - 1021.3 1021.3 3.0
31/12:30am 13.4 9.9 10.2 81 1.7 - 19 - 10 - 1021.3 - 3.0
31/12:00am 13.4 10.3 10.4 82 1.6 - 17 - 9 - 1021.5 1021.5 3.0
 
Date/Time
EST
Temp
°C
App
Temp
°C
Dew
Point
Rel
Hum
%
Delta-T
°C
Wind Press
QNH
hPa
Press
MSL
hPa
Rain
since 9 am
mm
Dir
 
Spd
km/h
Gust
km/h
Spd
kts
Gust
kts
30/11:30pm 13.8 10.6 11.1 84 1.4 - 19 - 10 - 1021.8 - 3.0
30/11:00pm 14.2 10.9 11.0 81 1.7 - 19 - 10 - 1021.8 1021.8 3.0
30/10:30pm 14.1 10.6 10.9 81 1.7 - 20 - 11 - 1021.9 - 3.0
30/10:00pm 14.1 10.7 10.7 80 1.8 - 19 - 10 - 1022.0 1022.0 3.0
30/09:30pm 14.0 10.7 11.0 82 1.6 - 19 - 10 - 1022.2 - 3.0
30/09:00pm 14.0 10.5 11.0 82 1.6 - 20 - 11 - 1022.3 1022.3 3.0
30/08:30pm 14.1 10.7 11.3 83 1.5 - 20 - 11 - 1022.4 - 3.0
30/08:00pm 14.3 11.4 11.1 81 1.7 - 17 - 9 - 1022.3 1022.3 3.0
30/07:30pm 14.3 11.8 10.9 80 1.8 - 15 - 8 - 1022.3 - 2.8
30/07:00pm 14.3 11.1 11.1 81 1.7 - 19 - 10 - 1022.1 1022.1 2.8
30/06:30pm 14.4 11.6 11.4 82 1.6 - 17 - 9 - 1021.9 - 2.8
30/06:00pm 14.3 11.6 11.8 85 1.3 - 17 - 9 - 1021.8 1021.8 2.8
30/05:30pm 14.6 11.5 11.7 83 1.6 - 19 - 10 - 1021.7 - 2.8
30/05:00pm 14.7 10.7 11.7 82 1.6 - 24 - 13 - 1021.6 1021.6 2.8
30/04:30pm 15.2 11.5 11.6 79 1.9 - 22 - 12 - 1021.5 - 2.8
30/04:00pm 15.2 11.2 11.8 80 1.8 - 24 - 13 - 1021.5 1021.5 2.8
30/03:30pm 15.5 12.0 12.1 80 1.9 - 22 - 12 - 1021.6 - 2.8
30/03:00pm 14.9 11.4 12.2 84 1.5 - 22 - 12 - 1021.7 1021.7 2.8
30/02:30pm 15.4 11.9 12.2 81 1.7 - 22 - 12 - 1021.8 - 2.2
30/02:00pm 15.8 12.0 12.4 80 1.9 - 24 - 13 - 1022.0 1022.0 2.2
30/01:30pm 15.7 12.2 12.3 80 1.9 - 22 - 12 - 1022.2 - 2.2
30/01:00pm 15.5 11.8 12.8 84 1.5 - 24 - 13 - 1022.2 1022.2 2.2
30/12:30pm 14.5 11.6 12.4 87 1.1 - 19 - 10 - 1022.5 - 2.2
30/12:00pm 14.7 10.9 12.4 86 1.3 - 24 - 13 - 1022.8 1022.8 1.8
30/11:30am 14.8 11.5 12.7 87 1.2 - 22 - 12 - 1023.0 - 1.8
30/11:00am 14.0 11.0 12.4 90 0.9 - 20 - 11 - 1023.4 1023.4 1.8
30/10:30am 13.3 10.0 11.7 90 0.9 - 20 - 11 - 1023.6 - 1.8
30/10:00am 12.9 10.5 11.3 90 0.8 - 15 - 8 - 1023.8 1023.8 1.0
30/09:30am 12.7 9.8 10.9 89 0.9 - 17 - 9 - 1023.8 - 0.2
30/09:00am 12.5 8.9 10.7 89 0.9 - 20 - 11 - 1023.9 1023.9 3.2
30/08:30am 12.5 8.9 10.6 88 1.0 - 20 - 11 - 1023.9 - 2.6
30/08:00am 12.3 8.6 10.2 87 1.1 - 20 - 11 - 1023.9 1023.9 2.4
30/07:30am 12.5 8.8 10.2 86 1.2 - 20 - 11 - 1023.8 - 2.0
30/07:00am 12.6 9.0 10.0 84 1.3 - 19 - 10 - 1023.5 1023.5 1.6
30/06:30am 13.1 8.8 9.5 79 1.8 - 22 - 12 - 1023.4 - 1.2
30/06:00am 13.3 8.3 9.4 77 2.0 - 26 - 14 - 1023.1 1023.1 1.2
30/05:30am 13.4 9.5 9.3 76 2.1 - 20 - 11 - 1022.8 - 1.2
30/05:00am 13.3 7.8 9.2 76 2.1 - 28 - 15 - 1022.6 1022.6 1.2
30/04:30am 13.3 7.8 9.0 75 2.2 - 28 - 15 - 1022.7 - 1.2
30/04:00am 13.5 8.3 9.0 74 2.3 - 26 - 14 - 1022.6 1022.6 1.2
30/03:30am 13.7 8.5 9.0 73 2.4 - 26 - 14 - 1022.6 - 1.2
30/03:00am 13.8 8.8 8.0 68 2.9 - 24 - 13 - 1022.7 1022.7 1.2
30/02:30am 14.0 9.0 8.2 68 2.9 - 24 - 13 - 1022.9 - 1.2
30/02:00am 13.9 9.0 8.3 69 2.8 - 24 - 13 - 1023.1 1023.1 1.2
30/01:30am 13.7 8.8 8.5 71 2.6 - 24 - 13 - 1023.3 - 1.2
30/01:00am 13.8 7.5 7.6 66 3.0 - 30 - 16 - 1023.6 1023.6 1.2
30/12:30am 14.0 8.3 6.8 62 3.5 - 26 - 14 - 1023.9 - 1.2
30/12:00am 14.1 8.4 6.5 60 3.6 - 26 - 14 - 1023.9 1023.9 1.2
 
Date/Time
EST
Temp
°C
App
Temp
°C
Dew
Point
Rel
Hum
%
Delta-T
°C
Wind Press
QNH
hPa
Press
MSL
hPa
Rain
since 9 am
mm
Dir
 
Spd
km/h
Gust
km/h
Spd
kts
Gust
kts
29/11:30pm 14.1 9.0 6.2 59 3.8 - 22 - 12 - 1023.9 - 1.2
29/11:00pm 14.2 8.9 6.8 61 3.6 - 24 - 13 - 1024.0 1024.0 1.2
29/10:30pm 14.3 8.6 6.9 61 3.6 - 26 - 14 - 1024.2 - 1.2
29/10:00pm 14.7 8.4 5.5 54 4.3 - 28 - 15 - 1024.3 1024.3 1.2
29/09:30pm 14.3 7.9 5.4 55 4.2 - 28 - 15 - 1024.4 - 1.2

Other Formats:

Comma delimited format used in spreadsheet applications
http://www.bom.gov.au/fwo/IDN60801/IDN60801.94768.axf

JavaScript Object Notation format (JSON) in row-major order
http://www.bom.gov.au/fwo/IDN60801/IDN60801.94768.json